sensor_id;sensor_type;location;lat;lon;timestamp;P1;durP1;ratioP1;P2;durP2;ratioP2
60352;SDS011;46196;52.970;6.954;2022-10-28T00:00:46;10.13;;;5.70;;
60352;SDS011;46196;52.970;6.954;2022-10-28T00:03:13;9.93;;;6.13;;
60352;SDS011;46196;52.970;6.954;2022-10-28T00:05:38;10.88;;;5.95;;
60352;SDS011;46196;52.970;6.954;2022-10-28T00:08:04;8.27;;;5.97;;
60352;SDS011;46196;52.970;6.954;2022-10-28T00:10:30;11.40;;;6.00;;
60352;SDS011;46196;52.970;6.954;2022-10-28T00:12:56;10.40;;;6.30;;
60352;SDS011;46196;52.970;6.954;2022-10-28T00:15:21;10.93;;;6.63;;
60352;SDS011;46196;52.970;6.954;2022-10-28T00:17:47;9.02;;;6.18;;
60352;SDS011;46196;52.970;6.954;2022-10-28T00:20:13;9.55;;;6.78;;
60352;SDS011;46196;52.970;6.954;2022-10-28T00:22:40;12.73;;;6.90;;
60352;SDS011;46196;52.970;6.954;2022-10-28T00:25:06;10.93;;;6.65;;
60352;SDS011;46196;52.970;6.954;2022-10-28T00:27:32;10.35;;;6.38;;
60352;SDS011;46196;52.970;6.954;2022-10-28T00:29:59;10.90;;;6.10;;
60352;SDS011;46196;52.970;6.954;2022-10-28T00:32:27;11.77;;;6.03;;
60352;SDS011;46196;52.970;6.954;2022-10-28T00:34:53;11.45;;;6.53;;
60352;SDS011;46196;52.970;6.954;2022-10-28T00:37:19;11.23;;;6.45;;
60352;SDS011;46196;52.970;6.954;2022-10-28T00:39:45;12.43;;;7.15;;
60352;SDS011;46196;52.970;6.954;2022-10-28T00:42:11;8.40;;;6.20;;
60352;SDS011;46196;52.970;6.954;2022-10-28T00:49:50;10.27;;;6.53;;
60352;SDS011;46196;52.970;6.954;2022-10-28T00:52:26;9.38;;;6.20;;
60352;SDS011;46196;52.970;6.954;2022-10-28T00:54:55;11.93;;;6.88;;
60352;SDS011;46196;52.970;6.954;2022-10-28T00:57:24;10.80;;;6.65;;
60352;SDS011;46196;52.970;6.954;2022-10-28T00:59:55;13.10;;;6.70;;
60352;SDS011;46196;52.970;6.954;2022-10-28T01:02:21;8.25;;;6.50;;
60352;SDS011;46196;52.970;6.954;2022-10-28T01:04:47;13.73;;;6.50;;
60352;SDS011;46196;52.970;6.954;2022-10-28T01:07:14;11.32;;;6.47;;
60352;SDS011;46196;52.970;6.954;2022-10-28T01:09:40;11.10;;;7.10;;
60352;SDS011;46196;52.970;6.954;2022-10-28T01:14:46;10.65;;;7.47;;
60352;SDS011;46196;52.970;6.954;2022-10-28T01:18:18;10.13;;;7.03;;
60352;SDS011;46196;52.970;6.954;2022-10-28T01:26:20;10.95;;;7.35;;
60352;SDS011;46196;52.970;6.954;2022-10-28T01:31:51;12.73;;;6.90;;
60352;SDS011;46196;52.970;6.954;2022-10-28T01:40:03;11.52;;;6.40;;
60352;SDS011;46196;52.970;6.954;2022-10-28T01:42:40;11.50;;;6.97;;
60352;SDS011;46196;52.970;6.954;2022-10-28T01:50:23;15.40;;;7.70;;
60352;SDS011;46196;52.970;6.954;2022-10-28T01:52:54;9.00;;;7.00;;
60352;SDS011;46196;52.970;6.954;2022-10-28T01:55:27;14.00;;;7.22;;
60352;SDS011;46196;52.970;6.954;2022-10-28T01:57:59;9.95;;;6.80;;
60352;SDS011;46196;52.970;6.954;2022-10-28T02:00:27;10.55;;;6.50;;
60352;SDS011;46196;52.970;6.954;2022-10-28T02:02:55;12.32;;;6.43;;
60352;SDS011;46196;52.970;6.954;2022-10-28T02:10:59;10.32;;;6.63;;
60352;SDS011;46196;52.970;6.954;2022-10-28T02:30:20;11.32;;;8.05;;
60352;SDS011;46196;52.970;6.954;2022-10-28T02:32:55;13.70;;;7.57;;
60352;SDS011;46196;52.970;6.954;2022-10-28T02:35:28;11.60;;;7.57;;
60352;SDS011;46196;52.970;6.954;2022-10-28T02:37:59;9.68;;;7.72;;
60352;SDS011;46196;52.970;6.954;2022-10-28T02:40:28;11.43;;;6.90;;
60352;SDS011;46196;52.970;6.954;2022-10-28T02:42:58;11.80;;;7.10;;
60352;SDS011;46196;52.970;6.954;2022-10-28T02:45:30;11.48;;;6.97;;
60352;SDS011;46196;52.970;6.954;2022-10-28T02:48:07;12.30;;;6.97;;
60352;SDS011;46196;52.970;6.954;2022-10-28T02:50:40;9.85;;;6.82;;
60352;SDS011;46196;52.970;6.954;2022-10-28T02:53:13;9.65;;;7.53;;
60352;SDS011;46196;52.970;6.954;2022-10-28T02:55:43;12.40;;;7.18;;
60352;SDS011;46196;52.970;6.954;2022-10-28T02:58:13;11.05;;;6.95;;
60352;SDS011;46196;52.970;6.954;2022-10-28T03:00:42;11.13;;;7.70;;
60352;SDS011;46196;52.970;6.954;2022-10-28T03:05:34;13.07;;;7.00;;
60352;SDS011;46196;52.970;6.954;2022-10-28T03:08:00;10.65;;;7.60;;
60352;SDS011;46196;52.970;6.954;2022-10-28T03:10:26;11.68;;;7.32;;
60352;SDS011;46196;52.970;6.954;2022-10-28T03:12:52;11.55;;;7.00;;
60352;SDS011;46196;52.970;6.954;2022-10-28T03:15:17;11.95;;;6.85;;
60352;SDS011;46196;52.970;6.954;2022-10-28T03:17:43;11.45;;;6.97;;
60352;SDS011;46196;52.970;6.954;2022-10-28T03:20:09;12.93;;;6.88;;
60352;SDS011;46196;52.970;6.954;2022-10-28T03:22:35;12.35;;;6.90;;
60352;SDS011;46196;52.970;6.954;2022-10-28T03:25:01;9.57;;;6.55;;
60352;SDS011;46196;52.970;6.954;2022-10-28T03:27:27;12.25;;;7.00;;
60352;SDS011;46196;52.970;6.954;2022-10-28T03:29:53;10.40;;;6.80;;
60352;SDS011;46196;52.970;6.954;2022-10-28T03:32:18;11.85;;;7.07;;
60352;SDS011;46196;52.970;6.954;2022-10-28T03:34:44;12.50;;;7.43;;
60352;SDS011;46196;52.970;6.954;2022-10-28T03:37:11;9.18;;;7.00;;
60352;SDS011;46196;52.970;6.954;2022-10-28T03:39:37;11.35;;;7.35;;
60352;SDS011;46196;52.970;6.954;2022-10-28T03:42:03;11.30;;;7.40;;
60352;SDS011;46196;52.970;6.954;2022-10-28T03:44:29;10.02;;;6.65;;
60352;SDS011;46196;52.970;6.954;2022-10-28T03:46:55;10.18;;;6.93;;
60352;SDS011;46196;52.970;6.954;2022-10-28T03:49:21;12.88;;;6.90;;
60352;SDS011;46196;52.970;6.954;2022-10-28T03:51:46;12.68;;;7.28;;
60352;SDS011;46196;52.970;6.954;2022-10-28T03:54:12;10.30;;;6.68;;
60352;SDS011;46196;52.970;6.954;2022-10-28T03:56:38;11.32;;;7.90;;
60352;SDS011;46196;52.970;6.954;2022-10-28T03:59:05;13.35;;;7.10;;
60352;SDS011;46196;52.970;6.954;2022-10-28T04:01:32;8.80;;;6.43;;
60352;SDS011;46196;52.970;6.954;2022-10-28T04:03:58;12.02;;;6.97;;
60352;SDS011;46196;52.970;6.954;2022-10-28T04:06:24;11.85;;;7.18;;
60352;SDS011;46196;52.970;6.954;2022-10-28T04:08:49;11.65;;;6.82;;
60352;SDS011;46196;52.970;6.954;2022-10-28T04:11:15;10.02;;;6.30;;
60352;SDS011;46196;52.970;6.954;2022-10-28T04:13:41;12.88;;;6.97;;
60352;SDS011;46196;52.970;6.954;2022-10-28T04:16:07;10.25;;;7.00;;
60352;SDS011;46196;52.970;6.954;2022-10-28T04:18:32;8.82;;;6.10;;
60352;SDS011;46196;52.970;6.954;2022-10-28T04:20:59;10.43;;;6.68;;
60352;SDS011;46196;52.970;6.954;2022-10-28T04:23:25;12.35;;;6.95;;
60352;SDS011;46196;52.970;6.954;2022-10-28T04:25:52;11.02;;;6.75;;
60352;SDS011;46196;52.970;6.954;2022-10-28T04:28:19;12.73;;;6.78;;
60352;SDS011;46196;52.970;6.954;2022-10-28T04:30:46;11.98;;;6.57;;
60352;SDS011;46196;52.970;6.954;2022-10-28T04:33:12;9.50;;;6.43;;
60352;SDS011;46196;52.970;6.954;2022-10-28T04:35:38;12.43;;;6.68;;
60352;SDS011;46196;52.970;6.954;2022-10-28T04:38:07;10.98;;;6.90;;
60352;SDS011;46196;52.970;6.954;2022-10-28T04:40:33;11.80;;;7.03;;
60352;SDS011;46196;52.970;6.954;2022-10-28T04:42:59;11.20;;;7.10;;
60352;SDS011;46196;52.970;6.954;2022-10-28T04:45:25;11.68;;;7.53;;
60352;SDS011;46196;52.970;6.954;2022-10-28T04:47:55;10.63;;;6.82;;
60352;SDS011;46196;52.970;6.954;2022-10-28T04:50:24;10.68;;;6.78;;
60352;SDS011;46196;52.970;6.954;2022-10-28T04:52:50;11.07;;;6.70;;
60352;SDS011;46196;52.970;6.954;2022-10-28T04:55:17;12.07;;;6.68;;
60352;SDS011;46196;52.970;6.954;2022-10-28T04:57:43;11.20;;;6.57;;
60352;SDS011;46196;52.970;6.954;2022-10-28T05:00:16;9.32;;;6.70;;
60352;SDS011;46196;52.970;6.954;2022-10-28T05:02:42;9.27;;;6.28;;
60352;SDS011;46196;52.970;6.954;2022-10-28T05:05:08;11.55;;;7.47;;
60352;SDS011;46196;52.970;6.954;2022-10-28T05:07:34;12.70;;;9.07;;
60352;SDS011;46196;52.970;6.954;2022-10-28T05:09:59;11.23;;;7.38;;
60352;SDS011;46196;52.970;6.954;2022-10-28T05:12:25;12.57;;;7.00;;
60352;SDS011;46196;52.970;6.954;2022-10-28T05:14:51;9.43;;;6.65;;
60352;SDS011;46196;52.970;6.954;2022-10-28T05:17:17;10.80;;;7.57;;
60352;SDS011;46196;52.970;6.954;2022-10-28T05:19:42;10.45;;;6.43;;
60352;SDS011;46196;52.970;6.954;2022-10-28T05:22:09;11.50;;;7.45;;
60352;SDS011;46196;52.970;6.954;2022-10-28T05:24:35;12.25;;;7.05;;
60352;SDS011;46196;52.970;6.954;2022-10-28T05:27:01;11.45;;;7.07;;
60352;SDS011;46196;52.970;6.954;2022-10-28T05:29:26;11.15;;;6.85;;
60352;SDS011;46196;52.970;6.954;2022-10-28T05:31:52;11.88;;;7.38;;
60352;SDS011;46196;52.970;6.954;2022-10-28T05:34:18;12.93;;;6.70;;
60352;SDS011;46196;52.970;6.954;2022-10-28T05:36:43;13.15;;;6.90;;
60352;SDS011;46196;52.970;6.954;2022-10-28T05:39:09;17.75;;;12.27;;
60352;SDS011;46196;52.970;6.954;2022-10-28T05:41:37;11.52;;;7.85;;
60352;SDS011;46196;52.970;6.954;2022-10-28T05:44:04;12.52;;;7.22;;
60352;SDS011;46196;52.970;6.954;2022-10-28T05:46:30;9.57;;;6.72;;
60352;SDS011;46196;52.970;6.954;2022-10-28T05:48:55;11.10;;;6.78;;
60352;SDS011;46196;52.970;6.954;2022-10-28T05:51:21;10.73;;;7.13;;
60352;SDS011;46196;52.970;6.954;2022-10-28T05:53:47;14.35;;;7.40;;
60352;SDS011;46196;52.970;6.954;2022-10-28T05:56:15;11.80;;;7.40;;
60352;SDS011;46196;52.970;6.954;2022-10-28T05:58:44;12.13;;;7.35;;
60352;SDS011;46196;52.970;6.954;2022-10-28T06:01:11;9.57;;;7.00;;
60352;SDS011;46196;52.970;6.954;2022-10-28T06:03:37;11.35;;;7.30;;
60352;SDS011;46196;52.970;6.954;2022-10-28T06:06:03;12.40;;;6.80;;
60352;SDS011;46196;52.970;6.954;2022-10-28T06:08:28;10.93;;;6.95;;
60352;SDS011;46196;52.970;6.954;2022-10-28T06:10:54;12.05;;;7.13;;
60352;SDS011;46196;52.970;6.954;2022-10-28T06:13:20;13.65;;;7.60;;
60352;SDS011;46196;52.970;6.954;2022-10-28T06:15:53;15.25;;;7.43;;
60352;SDS011;46196;52.970;6.954;2022-10-28T06:18:20;10.88;;;6.95;;
60352;SDS011;46196;52.970;6.954;2022-10-28T06:20:50;13.95;;;7.82;;
60352;SDS011;46196;52.970;6.954;2022-10-28T06:23:17;15.13;;;9.63;;
60352;SDS011;46196;52.970;6.954;2022-10-28T06:25:55;10.55;;;7.18;;
60352;SDS011;46196;52.970;6.954;2022-10-28T06:28:39;12.48;;;7.45;;
60352;SDS011;46196;52.970;6.954;2022-10-28T06:31:05;11.73;;;7.07;;
60352;SDS011;46196;52.970;6.954;2022-10-28T06:33:33;10.98;;;7.18;;
60352;SDS011;46196;52.970;6.954;2022-10-28T06:35:59;11.70;;;6.90;;
60352;SDS011;46196;52.970;6.954;2022-10-28T06:38:26;10.35;;;7.10;;
60352;SDS011;46196;52.970;6.954;2022-10-28T06:40:53;9.50;;;6.95;;
60352;SDS011;46196;52.970;6.954;2022-10-28T06:43:19;12.43;;;7.30;;
60352;SDS011;46196;52.970;6.954;2022-10-28T06:45:44;14.35;;;8.02;;
60352;SDS011;46196;52.970;6.954;2022-10-28T06:48:17;11.13;;;6.80;;
60352;SDS011;46196;52.970;6.954;2022-10-28T06:50:43;9.93;;;6.75;;
60352;SDS011;46196;52.970;6.954;2022-10-28T06:53:09;10.85;;;7.38;;
60352;SDS011;46196;52.970;6.954;2022-10-28T06:55:35;11.95;;;6.43;;
60352;SDS011;46196;52.970;6.954;2022-10-28T06:58:01;14.98;;;7.00;;
60352;SDS011;46196;52.970;6.954;2022-10-28T07:00:29;9.60;;;6.90;;
60352;SDS011;46196;52.970;6.954;2022-10-28T07:02:55;15.43;;;6.90;;
60352;SDS011;46196;52.970;6.954;2022-10-28T07:05:22;12.50;;;7.03;;
60352;SDS011;46196;52.970;6.954;2022-10-28T07:07:49;13.35;;;6.95;;
60352;SDS011;46196;52.970;6.954;2022-10-28T07:10:15;10.20;;;6.93;;
60352;SDS011;46196;52.970;6.954;2022-10-28T07:12:41;12.27;;;7.30;;
60352;SDS011;46196;52.970;6.954;2022-10-28T07:15:06;10.90;;;7.53;;
60352;SDS011;46196;52.970;6.954;2022-10-28T07:17:33;11.45;;;7.32;;
60352;SDS011;46196;52.970;6.954;2022-10-28T07:19:59;11.32;;;6.70;;
60352;SDS011;46196;52.970;6.954;2022-10-28T07:22:24;12.27;;;7.45;;
60352;SDS011;46196;52.970;6.954;2022-10-28T07:24:50;11.65;;;7.53;;
60352;SDS011;46196;52.970;6.954;2022-10-28T07:27:16;13.95;;;7.35;;
60352;SDS011;46196;52.970;6.954;2022-10-28T07:29:42;14.43;;;7.88;;
60352;SDS011;46196;52.970;6.954;2022-10-28T07:32:07;14.88;;;7.68;;
60352;SDS011;46196;52.970;6.954;2022-10-28T07:34:33;12.32;;;6.95;;
60352;SDS011;46196;52.970;6.954;2022-10-28T07:36:59;11.40;;;7.10;;
60352;SDS011;46196;52.970;6.954;2022-10-28T07:39:24;12.75;;;6.97;;
60352;SDS011;46196;52.970;6.954;2022-10-28T07:41:50;10.45;;;7.22;;
60352;SDS011;46196;52.970;6.954;2022-10-28T07:44:16;13.32;;;6.78;;
60352;SDS011;46196;52.970;6.954;2022-10-28T07:46:43;13.18;;;7.45;;
60352;SDS011;46196;52.970;6.954;2022-10-28T07:49:09;9.80;;;6.75;;
60352;SDS011;46196;52.970;6.954;2022-10-28T07:51:35;10.93;;;6.90;;
60352;SDS011;46196;52.970;6.954;2022-10-28T07:54:00;10.27;;;6.90;;
60352;SDS011;46196;52.970;6.954;2022-10-28T07:56:26;9.38;;;6.43;;
60352;SDS011;46196;52.970;6.954;2022-10-28T07:58:52;9.05;;;6.88;;
60352;SDS011;46196;52.970;6.954;2022-10-28T08:01:19;11.55;;;6.45;;
60352;SDS011;46196;52.970;6.954;2022-10-28T08:03:45;10.75;;;6.95;;
60352;SDS011;46196;52.970;6.954;2022-10-28T08:06:12;11.50;;;7.10;;
60352;SDS011;46196;52.970;6.954;2022-10-28T08:08:43;12.40;;;7.22;;
60352;SDS011;46196;52.970;6.954;2022-10-28T08:11:11;9.93;;;6.68;;
60352;SDS011;46196;52.970;6.954;2022-10-28T08:13:39;11.55;;;7.18;;
60352;SDS011;46196;52.970;6.954;2022-10-28T08:16:05;10.10;;;6.40;;
60352;SDS011;46196;52.970;6.954;2022-10-28T08:18:32;13.73;;;6.68;;
60352;SDS011;46196;52.970;6.954;2022-10-28T08:20:59;8.82;;;6.10;;
60352;SDS011;46196;52.970;6.954;2022-10-28T08:23:26;11.27;;;6.47;;
60352;SDS011;46196;52.970;6.954;2022-10-28T08:25:52;7.93;;;5.78;;
60352;SDS011;46196;52.970;6.954;2022-10-28T08:28:18;13.82;;;5.95;;
60352;SDS011;46196;52.970;6.954;2022-10-28T08:30:44;9.43;;;5.88;;
60352;SDS011;46196;52.970;6.954;2022-10-28T08:33:10;11.32;;;5.75;;
60352;SDS011;46196;52.970;6.954;2022-10-28T08:35:37;11.23;;;5.60;;
60352;SDS011;46196;52.970;6.954;2022-10-28T08:38:03;8.55;;;5.18;;
60352;SDS011;46196;52.970;6.954;2022-10-28T08:40:31;10.23;;;5.13;;
60352;SDS011;46196;52.970;6.954;2022-10-28T08:43:17;8.73;;;5.40;;
60352;SDS011;46196;52.970;6.954;2022-10-28T08:45:55;10.82;;;4.95;;
60352;SDS011;46196;52.970;6.954;2022-10-28T08:48:34;7.53;;;4.80;;
60352;SDS011;46196;52.970;6.954;2022-10-28T08:53:31;11.63;;;5.50;;
60352;SDS011;46196;52.970;6.954;2022-10-28T08:56:24;9.70;;;4.88;;
60352;SDS011;46196;52.970;6.954;2022-10-28T08:58:54;11.40;;;5.10;;
60352;SDS011;46196;52.970;6.954;2022-10-28T09:01:31;8.27;;;4.70;;
60352;SDS011;46196;52.970;6.954;2022-10-28T09:04:04;8.73;;;5.68;;
60352;SDS011;46196;52.970;6.954;2022-10-28T09:06:37;10.27;;;4.80;;
60352;SDS011;46196;52.970;6.954;2022-10-28T09:09:02;7.70;;;5.15;;
60352;SDS011;46196;52.970;6.954;2022-10-28T09:11:42;7.75;;;4.82;;
60352;SDS011;46196;52.970;6.954;2022-10-28T09:14:15;11.73;;;4.85;;
60352;SDS011;46196;52.970;6.954;2022-10-28T09:16:46;7.78;;;5.63;;
60352;SDS011;46196;52.970;6.954;2022-10-28T09:24:51;13.60;;;5.22;;
60352;SDS011;46196;52.970;6.954;2022-10-28T09:27:32;8.75;;;4.63;;
60352;SDS011;46196;52.970;6.954;2022-10-28T09:30:35;13.05;;;5.13;;
60352;SDS011;46196;52.970;6.954;2022-10-28T09:36:02;9.23;;;4.70;;
60352;SDS011;46196;52.970;6.954;2022-10-28T09:38:31;10.23;;;4.90;;
60352;SDS011;46196;52.970;6.954;2022-10-28T09:44:04;10.05;;;5.35;;
60352;SDS011;46196;52.970;6.954;2022-10-28T09:46:55;10.07;;;5.07;;
60352;SDS011;46196;52.970;6.954;2022-10-28T09:49:29;9.52;;;4.93;;
60352;SDS011;46196;52.970;6.954;2022-10-28T09:54:48;6.78;;;4.15;;
60352;SDS011;46196;52.970;6.954;2022-10-28T09:57:16;10.02;;;4.40;;
60352;SDS011;46196;52.970;6.954;2022-10-28T09:59:43;7.95;;;4.30;;
60352;SDS011;46196;52.970;6.954;2022-10-28T10:02:23;10.15;;;4.78;;
60352;SDS011;46196;52.970;6.954;2022-10-28T10:04:53;9.70;;;4.80;;
60352;SDS011;46196;52.970;6.954;2022-10-28T10:07:24;9.20;;;4.50;;
60352;SDS011;46196;52.970;6.954;2022-10-28T10:10:16;8.55;;;4.47;;
60352;SDS011;46196;52.970;6.954;2022-10-28T10:12:46;12.77;;;4.80;;
60352;SDS011;46196;52.970;6.954;2022-10-28T10:15:17;12.40;;;5.00;;
60352;SDS011;46196;52.970;6.954;2022-10-28T10:17:51;9.10;;;4.60;;
60352;SDS011;46196;52.970;6.954;2022-10-28T10:20:19;7.97;;;4.88;;
60352;SDS011;46196;52.970;6.954;2022-10-28T10:22:45;10.10;;;5.05;;
60352;SDS011;46196;52.970;6.954;2022-10-28T10:30:29;7.45;;;4.47;;
60352;SDS011;46196;52.970;6.954;2022-10-28T10:32:57;9.18;;;4.70;;
60352;SDS011;46196;52.970;6.954;2022-10-28T10:35:28;10.00;;;5.00;;
60352;SDS011;46196;52.970;6.954;2022-10-28T10:37:57;10.98;;;5.07;;
60352;SDS011;46196;52.970;6.954;2022-10-28T10:45:47;6.72;;;4.68;;
60352;SDS011;46196;52.970;6.954;2022-10-28T10:48:39;8.98;;;4.93;;
60352;SDS011;46196;52.970;6.954;2022-10-28T10:51:22;9.73;;;5.40;;
60352;SDS011;46196;52.970;6.954;2022-10-28T10:53:51;10.65;;;4.63;;
60352;SDS011;46196;52.970;6.954;2022-10-28T10:56:25;9.90;;;4.75;;
60352;SDS011;46196;52.970;6.954;2022-10-28T10:58:54;9.90;;;4.65;;
60352;SDS011;46196;52.970;6.954;2022-10-28T11:01:24;9.30;;;4.65;;
60352;SDS011;46196;52.970;6.954;2022-10-28T11:03:59;10.73;;;5.00;;
60352;SDS011;46196;52.970;6.954;2022-10-28T11:06:31;10.93;;;6.15;;
60352;SDS011;46196;52.970;6.954;2022-10-28T11:09:18;9.95;;;4.53;;
60352;SDS011;46196;52.970;6.954;2022-10-28T11:11:59;13.43;;;5.38;;
60352;SDS011;46196;52.970;6.954;2022-10-28T11:14:26;11.10;;;5.22;;
60352;SDS011;46196;52.970;6.954;2022-10-28T11:16:55;11.13;;;4.80;;
60352;SDS011;46196;52.970;6.954;2022-10-28T11:19:23;12.45;;;5.50;;
60352;SDS011;46196;52.970;6.954;2022-10-28T11:24:51;9.88;;;4.13;;
60352;SDS011;46196;52.970;6.954;2022-10-28T11:27:58;14.38;;;5.32;;
60352;SDS011;46196;52.970;6.954;2022-10-28T11:30:52;10.20;;;4.88;;
60352;SDS011;46196;52.970;6.954;2022-10-28T11:33:27;7.82;;;4.20;;
60352;SDS011;46196;52.970;6.954;2022-10-28T11:36:04;9.05;;;5.10;;
60352;SDS011;46196;52.970;6.954;2022-10-28T11:41:23;7.55;;;4.53;;
60352;SDS011;46196;52.970;6.954;2022-10-28T11:43:58;11.52;;;4.80;;
60352;SDS011;46196;52.970;6.954;2022-10-28T11:54:44;10.13;;;4.90;;
60352;SDS011;46196;52.970;6.954;2022-10-28T11:57:22;10.55;;;4.75;;
60352;SDS011;46196;52.970;6.954;2022-10-28T12:05:46;8.32;;;4.13;;
60352;SDS011;46196;52.970;6.954;2022-10-28T12:14:17;8.75;;;4.15;;
60352;SDS011;46196;52.970;6.954;2022-10-28T12:19:47;10.73;;;4.35;;
60352;SDS011;46196;52.970;6.954;2022-10-28T12:22:22;7.18;;;4.10;;
60352;SDS011;46196;52.970;6.954;2022-10-28T12:24:53;10.55;;;4.40;;
60352;SDS011;46196;52.970;6.954;2022-10-28T12:27:25;7.45;;;4.38;;
60352;SDS011;46196;52.970;6.954;2022-10-28T12:29:56;9.38;;;4.30;;
60352;SDS011;46196;52.970;6.954;2022-10-28T12:32:32;7.97;;;4.45;;
60352;SDS011;46196;52.970;6.954;2022-10-28T12:35:02;10.43;;;4.22;;
60352;SDS011;46196;52.970;6.954;2022-10-28T12:37:51;10.25;;;4.60;;
60352;SDS011;46196;52.970;6.954;2022-10-28T12:43:34;14.65;;;4.82;;
60352;SDS011;46196;52.970;6.954;2022-10-28T12:46:03;9.50;;;4.63;;
60352;SDS011;46196;52.970;6.954;2022-10-28T12:48:43;9.80;;;5.13;;
60352;SDS011;46196;52.970;6.954;2022-10-28T12:51:16;9.95;;;4.85;;
60352;SDS011;46196;52.970;6.954;2022-10-28T12:57:11;9.57;;;4.78;;
60352;SDS011;46196;52.970;6.954;2022-10-28T12:59:53;7.88;;;4.53;;
60352;SDS011;46196;52.970;6.954;2022-10-28T13:02:31;7.65;;;4.25;;
60352;SDS011;46196;52.970;6.954;2022-10-28T13:05:02;9.93;;;4.97;;
60352;SDS011;46196;52.970;6.954;2022-10-28T13:07:33;9.05;;;4.68;;
60352;SDS011;46196;52.970;6.954;2022-10-28T13:13:20;8.68;;;4.55;;
60352;SDS011;46196;52.970;6.954;2022-10-28T13:16:17;9.10;;;4.13;;
60352;SDS011;46196;52.970;6.954;2022-10-28T13:27:04;11.00;;;4.72;;
60352;SDS011;46196;52.970;6.954;2022-10-28T13:29:37;12.65;;;5.03;;
60352;SDS011;46196;52.970;6.954;2022-10-28T13:32:05;9.40;;;4.50;;
60352;SDS011;46196;52.970;6.954;2022-10-28T13:34:32;8.18;;;4.30;;
60352;SDS011;46196;52.970;6.954;2022-10-28T13:37:00;8.27;;;4.78;;
60352;SDS011;46196;52.970;6.954;2022-10-28T13:49:37;10.20;;;5.40;;
60352;SDS011;46196;52.970;6.954;2022-10-28T13:59:56;9.73;;;4.78;;
60352;SDS011;46196;52.970;6.954;2022-10-28T14:05:16;12.05;;;4.78;;
60352;SDS011;46196;52.970;6.954;2022-10-28T14:07:50;10.73;;;4.88;;
60352;SDS011;46196;52.970;6.954;2022-10-28T14:10:40;10.30;;;4.68;;
60352;SDS011;46196;52.970;6.954;2022-10-28T14:13:06;8.55;;;4.00;;
60352;SDS011;46196;52.970;6.954;2022-10-28T14:15:46;9.35;;;4.32;;
60352;SDS011;46196;52.970;6.954;2022-10-28T14:26:03;9.57;;;4.57;;
60352;SDS011;46196;52.970;6.954;2022-10-28T14:44:03;12.77;;;5.15;;
60352;SDS011;46196;52.970;6.954;2022-10-28T14:49:59;9.82;;;4.88;;
60352;SDS011;46196;52.970;6.954;2022-10-28T14:52:31;8.57;;;4.85;;
60352;SDS011;46196;52.970;6.954;2022-10-28T14:55:01;12.55;;;4.82;;
60352;SDS011;46196;52.970;6.954;2022-10-28T14:57:31;7.88;;;4.45;;
60352;SDS011;46196;52.970;6.954;2022-10-28T15:00:05;9.35;;;5.32;;
60352;SDS011;46196;52.970;6.954;2022-10-28T15:02:33;9.82;;;4.53;;
60352;SDS011;46196;52.970;6.954;2022-10-28T15:05:14;8.15;;;4.72;;
60352;SDS011;46196;52.970;6.954;2022-10-28T15:07:45;9.48;;;5.40;;
60352;SDS011;46196;52.970;6.954;2022-10-28T15:10:12;9.88;;;4.72;;
60352;SDS011;46196;52.970;6.954;2022-10-28T15:12:52;18.02;;;5.72;;
60352;SDS011;46196;52.970;6.954;2022-10-28T15:17:50;11.93;;;4.82;;
60352;SDS011;46196;52.970;6.954;2022-10-28T15:20:21;11.95;;;4.95;;
60352;SDS011;46196;52.970;6.954;2022-10-28T15:22:48;8.25;;;4.75;;
60352;SDS011;46196;52.970;6.954;2022-10-28T15:25:16;11.95;;;4.80;;
60352;SDS011;46196;52.970;6.954;2022-10-28T15:27:44;11.13;;;4.63;;
60352;SDS011;46196;52.970;6.954;2022-10-28T15:30:16;11.27;;;4.93;;
60352;SDS011;46196;52.970;6.954;2022-10-28T15:33:16;6.68;;;3.70;;
60352;SDS011;46196;52.970;6.954;2022-10-28T15:35:53;6.05;;;3.85;;
60352;SDS011;46196;52.970;6.954;2022-10-28T15:38:31;13.85;;;4.88;;
60352;SDS011;46196;52.970;6.954;2022-10-28T15:40:58;12.50;;;4.75;;
60352;SDS011;46196;52.970;6.954;2022-10-28T15:43:25;10.43;;;4.72;;
60352;SDS011;46196;52.970;6.954;2022-10-28T15:46:06;7.00;;;4.18;;
60352;SDS011;46196;52.970;6.954;2022-10-28T15:48:34;9.63;;;3.55;;
60352;SDS011;46196;52.970;6.954;2022-10-28T15:51:16;9.57;;;4.65;;
60352;SDS011;46196;52.970;6.954;2022-10-28T15:53:46;8.35;;;4.20;;
60352;SDS011;46196;52.970;6.954;2022-10-28T15:56:30;12.43;;;4.78;;
60352;SDS011;46196;52.970;6.954;2022-10-28T15:59:05;11.18;;;4.45;;
60352;SDS011;46196;52.970;6.954;2022-10-28T16:04:39;10.15;;;5.03;;
60352;SDS011;46196;52.970;6.954;2022-10-28T16:06:52;12.07;;;4.65;;
60352;SDS011;46196;52.970;6.954;2022-10-28T16:09:30;7.65;;;4.15;;
60352;SDS011;46196;52.970;6.954;2022-10-28T16:12:02;9.30;;;4.32;;
60352;SDS011;46196;52.970;6.954;2022-10-28T16:14:37;11.45;;;5.25;;
60352;SDS011;46196;52.970;6.954;2022-10-28T16:17:10;15.60;;;5.63;;
60352;SDS011;46196;52.970;6.954;2022-10-28T16:22:23;13.25;;;4.70;;
60352;SDS011;46196;52.970;6.954;2022-10-28T16:24:51;14.85;;;5.72;;
60352;SDS011;46196;52.970;6.954;2022-10-28T16:27:19;8.65;;;4.60;;
60352;SDS011;46196;52.970;6.954;2022-10-28T16:29:49;12.90;;;4.80;;
60352;SDS011;46196;52.970;6.954;2022-10-28T16:32:16;8.40;;;4.45;;
60352;SDS011;46196;52.970;6.954;2022-10-28T16:34:50;10.23;;;5.00;;
60352;SDS011;46196;52.970;6.954;2022-10-28T16:37:26;8.48;;;5.13;;
60352;SDS011;46196;52.970;6.954;2022-10-28T16:39:53;8.85;;;5.22;;
60352;SDS011;46196;52.970;6.954;2022-10-28T16:42:20;15.35;;;6.05;;
60352;SDS011;46196;52.970;6.954;2022-10-28T16:44:47;12.93;;;5.43;;
60352;SDS011;46196;52.970;6.954;2022-10-28T16:47:22;9.30;;;5.07;;
60352;SDS011;46196;52.970;6.954;2022-10-28T16:49:53;8.90;;;4.88;;
60352;SDS011;46196;52.970;6.954;2022-10-28T16:52:20;12.48;;;5.43;;
60352;SDS011;46196;52.970;6.954;2022-10-28T16:54:47;13.60;;;5.20;;
60352;SDS011;46196;52.970;6.954;2022-10-28T16:57:14;12.10;;;5.60;;
60352;SDS011;46196;52.970;6.954;2022-10-28T16:59:41;11.63;;;4.70;;
60352;SDS011;46196;52.970;6.954;2022-10-28T17:04:42;10.55;;;4.70;;
60352;SDS011;46196;52.970;6.954;2022-10-28T17:07:08;11.75;;;5.00;;
60352;SDS011;46196;52.970;6.954;2022-10-28T17:09:39;9.43;;;4.55;;
60352;SDS011;46196;52.970;6.954;2022-10-28T17:12:05;9.82;;;5.00;;
60352;SDS011;46196;52.970;6.954;2022-10-28T17:14:31;13.30;;;4.97;;
60352;SDS011;46196;52.970;6.954;2022-10-28T17:16:57;8.43;;;4.07;;
60352;SDS011;46196;52.970;6.954;2022-10-28T17:19:23;11.73;;;5.63;;
60352;SDS011;46196;52.970;6.954;2022-10-28T17:21:49;12.40;;;5.53;;
60352;SDS011;46196;52.970;6.954;2022-10-28T17:24:15;9.50;;;4.80;;
60352;SDS011;46196;52.970;6.954;2022-10-28T17:26:41;10.70;;;5.22;;
60352;SDS011;46196;52.970;6.954;2022-10-28T17:29:08;9.45;;;3.97;;
60352;SDS011;46196;52.970;6.954;2022-10-28T17:31:34;11.13;;;5.18;;
60352;SDS011;46196;52.970;6.954;2022-10-28T17:34:00;11.48;;;5.07;;
60352;SDS011;46196;52.970;6.954;2022-10-28T17:36:26;7.68;;;4.93;;
60352;SDS011;46196;52.970;6.954;2022-10-28T17:38:51;10.35;;;5.32;;
60352;SDS011;46196;52.970;6.954;2022-10-28T17:41:18;10.27;;;5.13;;
60352;SDS011;46196;52.970;6.954;2022-10-28T17:43:44;10.98;;;5.43;;
60352;SDS011;46196;52.970;6.954;2022-10-28T17:46:10;11.80;;;5.15;;
60352;SDS011;46196;52.970;6.954;2022-10-28T17:48:36;9.88;;;4.70;;
60352;SDS011;46196;52.970;6.954;2022-10-28T17:51:04;9.15;;;5.07;;
60352;SDS011;46196;52.970;6.954;2022-10-28T17:53:31;7.60;;;4.50;;
60352;SDS011;46196;52.970;6.954;2022-10-28T17:56:00;11.52;;;4.90;;
60352;SDS011;46196;52.970;6.954;2022-10-28T17:58:28;12.52;;;5.88;;